Terminal Aerodrome Forecast
Issued by NWS

Home | Current Version | Previous Version | Text Only | Print | Product List | Glossary On
Versions: 1 2 3 4 5 6 7 8 9 10 11 12 13 14
937
FTUS45 KTFX 242320
TAFGTF
TAF
KGTF 242320Z 2500/2524 20017G22KT P6SM SCT070 BKN150
     FM250400 23015KT P6SM BKN070
     FM251600 26017G25KT P6SM SCT070=

USA.gov is the U.S. government's official web portal to all federal, state and local government web resources and services.